Flight Track Log - Related Links

Times and Time Zones

All times are in EDT time to prevent confusion due to time zone crossing. See the USC105 flight status page for this flight to view local times or setup timezone preferences in your user account.

Time Position Orientation Groundspeed Altitude Reporting Facility
EDT Latitude Longitude Course Direction KTS MPH feet Rate Location/Type
Thu 05:47:46 AM 41.8833 -88.2500 83° East 126 145 1,600  Level Chicago TRACON
Thu 05:48:46 AM 41.8500 -88.2500 180° South 142 163 2,700 1,150 Climbing Chicago TRACON
Thu 05:49:46 AM 41.8167 -88.2000 132° Southeast 142 163 3,900 1,200 Climbing Chicago TRACON
Thu 05:50:46 AM 41.8000 -88.1500 114° Southeast 145 167 5,100 1,091 Climbing Chicago TRACON
Thu 05:51:47 AM 41.8000 -88.1000 90° East 149 171 6,100 1,041 Climbing Chicago TRACON
Thu 05:52:47 AM 41.7833 -88.0500 114° Southeast 152 175 7,200 1,100 Climbing Chicago TRACON
Thu 05:53:00 AM 41.9712 -87.5195 83° East  Level Estimated
Thu 05:53:47 AM 41.7667 -88.0000 114° Southeast 150 173 8,300  Level Chicago TRACON
Thu 05:54:47 AM 41.7667 -87.9333 90° East 162 186 9,000 400 Climbing Chicago TRACON
Thu 05:55:47 AM 41.7667 -87.8667 90° East 204 235 9,100 50 Climbing Chicago TRACON
Thu 05:56:47 AM 41.7667 -87.7833 90° East 213 245 9,100  Level Chicago TRACON
Thu 05:57:47 AM 41.7667 -87.7000 90° East 213 245 9,100  Level Chicago TRACON
Thu 05:58:47 AM 41.7833 -87.6333 71° East 212 244 9,100 -67 Level Chicago TRACON
Thu 05:59:17 AM 41.7756 -87.6072 112° Southeast 209 241 9,000 -67 Descending Chicago Center
Thu 06:00:17 AM 41.7775 -87.5131 88° East 211 243 9,000  Level Chicago Center
Thu 06:01:18 AM 41.7800 -87.4344 88° East 212 244 9,000 50 Level Chicago Center
Thu 06:02:18 AM 41.7844 -87.3561 86° East 212 244 9,100 50 Climbing Chicago Center
Thu 06:03:19 AM 41.7872 -87.2778 87° East 211 243 9,100  Level Chicago Center
Thu 06:05:20 AM 41.8014 -87.1214 83° East 214 246 9,100  Level Chicago Center
Thu 06:06:21 AM 41.8119 -87.0450 79° East 211 243 9,100  Level Chicago Center
Thu 06:07:21 AM 41.8228 -86.9683 79° East 210 242 9,100  Level Chicago Center
Thu 06:08:22 AM 41.8331 -86.8922 80° East 209 241 9,100  Level Chicago Center
Thu 06:09:22 AM 41.8431 -86.8175 80° East 205 236 9,100  Level Chicago Center
Thu 06:10:23 AM 41.8528 -86.7411 80° East 207 238 9,100  Level Chicago Center
Thu 06:11:24 AM 41.8636 -86.6625 79° East 209 241 9,100  Level Chicago Center
Thu 06:12:24 AM 41.8739 -86.5872 80° East 206 237 9,100  Level Chicago Center
Thu 06:13:25 AM 41.8828 -86.5111 81° East 207 238 9,100  Level Chicago Center
Thu 06:14:25 AM 41.8933 -86.4356 79° East 206 237 9,100  Level Chicago Center
Thu 06:15:26 AM 41.9039 -86.3600 79° East 206 237 9,100  Level Chicago Center
Thu 06:16:27 AM 41.9142 -86.2847 80° East 206 237 9,100  Level Chicago Center
Thu 06:17:27 AM 41.9236 -86.2094 80° East 204 235 9,100  Level Chicago Center
Thu 06:18:28 AM 41.9333 -86.1339 80° East 205 236 9,100  Level Chicago Center
Thu 06:19:29 AM 41.9433 -86.0592 80° East 205 236 9,100  Level Chicago Center
Thu 06:20:29 AM 41.9531 -85.9828 80° East 206 237 9,100  Level Chicago Center
Thu 06:21:30 AM 41.9622 -85.9083 81° East 204 235 9,100  Level Chicago Center
Thu 06:22:31 AM 41.9736 -85.8183 80° East 203 234 9,100  Level Chicago Center
Thu 06:23:31 AM 41.9825 -85.7433 81° East 203 234 9,100 -50 Level Chicago Center
Thu 06:24:32 AM 41.9928 -85.6683 80° East 203 234 9,000  Descending Chicago Center
Thu 06:25:33 AM 42.0025 -85.5947 80° East 202 232 9,100 50 Climbing Chicago Center
Thu 06:26:33 AM 42.0114 -85.5194 81° East 203 234 9,100  Level Chicago Center
Thu 06:27:34 AM 42.0214 -85.4453 80° East 202 232 9,100  Level Chicago Center
Thu 06:28:35 AM 42.0306 -85.3711 81° East 200 230 9,100  Level Chicago Center
Thu 06:29:35 AM 42.0392 -85.2953 81° East 203 234 9,100  Level Chicago Center
Thu 06:30:36 AM 42.0486 -85.2222 80° East 201 231 9,100  Level Chicago Center
Thu 06:31:37 AM 42.0578 -85.1475 81° East 201 231 9,100  Level Chicago Center
Thu 06:32:37 AM 42.0667 -85.0725 81° East 202 232 9,100  Level Chicago Center
Thu 06:33:38 AM 42.0761 -84.9986 80° East 201 231 9,100  Level Chicago Center
Thu 06:34:39 AM 42.0842 -84.9244 82° East 200 230 9,100  Level Chicago Center
Thu 06:35:39 AM 42.0925 -84.8508 81° East 200 230 9,100  Level Chicago Center
Thu 06:36:40 AM 42.1025 -84.7767 80° East 200 230 9,100  Level Chicago Center
Thu 06:37:41 AM 42.1097 -84.7008 83° East 203 234 9,100  Level Chicago Center
Thu 06:38:41 AM 42.1192 -84.6264 80° East 203 234 9,100  Level Chicago Center
Thu 06:39:42 AM 42.1278 -84.5517 81° East 201 231 9,100  Level Chicago Center
Thu 06:40:43 AM 42.1369 -84.4733 81° East 202 232 9,100  Level Chicago Center
Thu 06:41:43 AM 42.1453 -84.3994 81° East 201 231 9,100 -50 Level Chicago Center
Thu 06:42:44 AM 42.1542 -84.3236 81° East 203 234 9,000 -344 Descending Chicago Center
Thu 06:43:45 AM 42.1614 -84.2472 83° East 205 236 8,400 -684 Descending Chicago Center
Thu 06:44:38 AM 42.1708 -84.1639 81° East 215 247 7,700 -690 Descending Cleveland Center
Thu 06:46:39 AM 42.1797 -84.0103 85° East 210 242 6,400 -725 Descending Cleveland Center
Thu 06:47:40 AM 42.1800 -83.9317 90° East 211 243 5,500 -885 Descending Cleveland Center

Login

Don't have an account? Register now (free) for customized features, flight alerts, and more!